sensor_id;sensor_type;location;lat;lon;timestamp;temperature;humidity
7654;DHT22;3869;48.406;10.774;2023-04-06T00:02:04;-0.30;99.90
7654;DHT22;3869;48.406;10.774;2023-04-06T00:04:32;-0.40;99.90
7654;DHT22;3869;48.406;10.774;2023-04-06T00:06:59;-0.40;99.90
7654;DHT22;3869;48.406;10.774;2023-04-06T00:09:27;-0.40;99.90
7654;DHT22;3869;48.406;10.774;2023-04-06T00:11:57;-0.40;99.90
7654;DHT22;3869;48.406;10.774;2023-04-06T00:14:25;-0.40;99.90
7654;DHT22;3869;48.406;10.774;2023-04-06T00:16:53;-0.50;99.90
7654;DHT22;3869;48.406;10.774;2023-04-06T00:19:21;-0.50;99.90
7654;DHT22;3869;48.406;10.774;2023-04-06T00:21:49;-0.50;99.90
7654;DHT22;3869;48.406;10.774;2023-04-06T00:24:17;-0.50;99.90
7654;DHT22;3869;48.406;10.774;2023-04-06T00:26:45;-0.50;99.90
7654;DHT22;3869;48.406;10.774;2023-04-06T00:29:14;-0.50;99.90
7654;DHT22;3869;48.406;10.774;2023-04-06T00:31:42;-0.60;99.90
7654;DHT22;3869;48.406;10.774;2023-04-06T00:34:10;-0.60;99.90
7654;DHT22;3869;48.406;10.774;2023-04-06T00:36:38;-0.60;99.90
7654;DHT22;3869;48.406;10.774;2023-04-06T00:39:06;-0.60;99.90
7654;DHT22;3869;48.406;10.774;2023-04-06T00:41:34;-0.60;99.90
7654;DHT22;3869;48.406;10.774;2023-04-06T00:44:02;-0.60;99.90
7654;DHT22;3869;48.406;10.774;2023-04-06T00:46:32;-0.70;99.90
7654;DHT22;3869;48.406;10.774;2023-04-06T00:49:00;-0.70;99.90
7654;DHT22;3869;48.406;10.774;2023-04-06T00:51:28;-0.70;99.90
7654;DHT22;3869;48.406;10.774;2023-04-06T00:53:56;-0.70;99.90
7654;DHT22;3869;48.406;10.774;2023-04-06T00:56:24;-0.70;99.90
7654;DHT22;3869;48.406;10.774;2023-04-06T00:58:53;-0.70;99.90
7654;DHT22;3869;48.406;10.774;2023-04-06T01:01:21;-0.70;99.90
7654;DHT22;3869;48.406;10.774;2023-04-06T01:03:52;-0.70;99.90
7654;DHT22;3869;48.406;10.774;2023-04-06T01:06:21;-0.80;99.90
7654;DHT22;3869;48.406;10.774;2023-04-06T01:08:49;-0.80;99.90
7654;DHT22;3869;48.406;10.774;2023-04-06T01:11:17;-0.80;99.90
7654;DHT22;3869;48.406;10.774;2023-04-06T01:13:46;-0.80;99.90
7654;DHT22;3869;48.406;10.774;2023-04-06T01:16:14;-0.80;99.90
7654;DHT22;3869;48.406;10.774;2023-04-06T01:18:42;-0.80;99.90
7654;DHT22;3869;48.406;10.774;2023-04-06T01:21:12;-0.80;99.90
7654;DHT22;3869;48.406;10.774;2023-04-06T01:23:44;-0.90;99.90
7654;DHT22;3869;48.406;10.774;2023-04-06T01:26:13;-0.90;99.90
7654;DHT22;3869;48.406;10.774;2023-04-06T01:28:41;-0.90;99.90
7654;DHT22;3869;48.406;10.774;2023-04-06T01:31:09;-0.90;99.90
7654;DHT22;3869;48.406;10.774;2023-04-06T01:33:37;-0.90;99.90
7654;DHT22;3869;48.406;10.774;2023-04-06T01:36:06;-0.80;99.90
7654;DHT22;3869;48.406;10.774;2023-04-06T01:38:34;-0.90;99.90
7654;DHT22;3869;48.406;10.774;2023-04-06T01:41:04;-0.90;99.90
7654;DHT22;3869;48.406;10.774;2023-04-06T01:43:32;-1.00;99.90
7654;DHT22;3869;48.406;10.774;2023-04-06T01:46:01;-1.00;99.90
7654;DHT22;3869;48.406;10.774;2023-04-06T01:48:29;-1.00;99.90
7654;DHT22;3869;48.406;10.774;2023-04-06T01:50:57;-0.90;99.90
7654;DHT22;3869;48.406;10.774;2023-04-06T01:53:25;-0.90;99.90
7654;DHT22;3869;48.406;10.774;2023-04-06T01:55:53;-0.90;99.90
7654;DHT22;3869;48.406;10.774;2023-04-06T01:58:23;-0.90;99.90
7654;DHT22;3869;48.406;10.774;2023-04-06T02:00:51;-1.00;99.90
7654;DHT22;3869;48.406;10.774;2023-04-06T02:03:19;-1.10;99.90
7654;DHT22;3869;48.406;10.774;2023-04-06T02:05:47;-1.10;99.90
7654;DHT22;3869;48.406;10.774;2023-04-06T02:08:15;-1.20;99.90
7654;DHT22;3869;48.406;10.774;2023-04-06T02:10:43;-1.20;99.90
7654;DHT22;3869;48.406;10.774;2023-04-06T02:13:11;-1.20;99.90
7654;DHT22;3869;48.406;10.774;2023-04-06T02:15:40;-1.20;99.90
7654;DHT22;3869;48.406;10.774;2023-04-06T02:18:08;-1.20;99.90
7654;DHT22;3869;48.406;10.774;2023-04-06T02:20:36;-1.20;99.90
7654;DHT22;3869;48.406;10.774;2023-04-06T02:23:04;-1.20;99.90
7654;DHT22;3869;48.406;10.774;2023-04-06T02:25:32;-1.20;99.90
7654;DHT22;3869;48.406;10.774;2023-04-06T02:28:00;-1.30;99.90
7654;DHT22;3869;48.406;10.774;2023-04-06T02:30:28;-1.30;99.90
7654;DHT22;3869;48.406;10.774;2023-04-06T02:33:00;-1.30;99.90
7654;DHT22;3869;48.406;10.774;2023-04-06T02:35:30;-1.40;99.90
7654;DHT22;3869;48.406;10.774;2023-04-06T02:37:58;-1.40;99.90
7654;DHT22;3869;48.406;10.774;2023-04-06T02:40:26;-1.50;99.90
7654;DHT22;3869;48.406;10.774;2023-04-06T02:42:54;-1.50;99.90
7654;DHT22;3869;48.406;10.774;2023-04-06T02:45:22;-1.50;99.90
7654;DHT22;3869;48.406;10.774;2023-04-06T02:47:51;-1.50;99.90
7654;DHT22;3869;48.406;10.774;2023-04-06T02:50:20;-1.50;99.90
7654;DHT22;3869;48.406;10.774;2023-04-06T02:52:48;-1.50;99.90
7654;DHT22;3869;48.406;10.774;2023-04-06T02:55:16;-1.50;99.90
7654;DHT22;3869;48.406;10.774;2023-04-06T02:57:48;-1.50;99.90
7654;DHT22;3869;48.406;10.774;2023-04-06T03:00:16;-1.50;99.90
7654;DHT22;3869;48.406;10.774;2023-04-06T03:02:44;-1.50;99.90
7654;DHT22;3869;48.406;10.774;2023-04-06T03:05:12;-1.60;99.90
7654;DHT22;3869;48.406;10.774;2023-04-06T03:07:41;-1.60;99.90
7654;DHT22;3869;48.406;10.774;2023-04-06T03:10:09;-1.60;99.90
7654;DHT22;3869;48.406;10.774;2023-04-06T03:12:37;-1.70;99.90
7654;DHT22;3869;48.406;10.774;2023-04-06T03:15:06;-1.70;99.90
7654;DHT22;3869;48.406;10.774;2023-04-06T03:17:35;-1.70;99.90
7654;DHT22;3869;48.406;10.774;2023-04-06T03:20:03;-1.70;99.90
7654;DHT22;3869;48.406;10.774;2023-04-06T03:22:31;-1.70;99.90
7654;DHT22;3869;48.406;10.774;2023-04-06T03:25:00;-1.70;99.90
7654;DHT22;3869;48.406;10.774;2023-04-06T03:27:29;-1.80;99.90
7654;DHT22;3869;48.406;10.774;2023-04-06T03:29:58;-1.80;99.90
7654;DHT22;3869;48.406;10.774;2023-04-06T03:32:26;-1.80;99.90
7654;DHT22;3869;48.406;10.774;2023-04-06T03:34:54;-1.80;99.90
7654;DHT22;3869;48.406;10.774;2023-04-06T03:37:22;-1.80;99.90
7654;DHT22;3869;48.406;10.774;2023-04-06T03:39:49;-1.80;99.90
7654;DHT22;3869;48.406;10.774;2023-04-06T03:42:19;-1.80;99.90
7654;DHT22;3869;48.406;10.774;2023-04-06T03:44:47;-1.80;99.90
7654;DHT22;3869;48.406;10.774;2023-04-06T03:47:15;-1.80;99.90
7654;DHT22;3869;48.406;10.774;2023-04-06T03:49:43;-1.90;99.90
7654;DHT22;3869;48.406;10.774;2023-04-06T03:52:11;-1.90;99.90
7654;DHT22;3869;48.406;10.774;2023-04-06T03:54:39;-1.90;99.90
7654;DHT22;3869;48.406;10.774;2023-04-06T03:57:07;-1.90;99.90
7654;DHT22;3869;48.406;10.774;2023-04-06T03:59:36;-1.90;99.90
7654;DHT22;3869;48.406;10.774;2023-04-06T04:02:04;-1.90;99.90
7654;DHT22;3869;48.406;10.774;2023-04-06T04:04:32;-1.90;99.90
7654;DHT22;3869;48.406;10.774;2023-04-06T04:07:00;-1.90;99.90
7654;DHT22;3869;48.406;10.774;2023-04-06T04:09:28;-1.90;99.90
7654;DHT22;3869;48.406;10.774;2023-04-06T04:11:56;-1.90;99.90
7654;DHT22;3869;48.406;10.774;2023-04-06T04:14:24;-2.00;99.90
7654;DHT22;3869;48.406;10.774;2023-04-06T04:16:53;-2.00;99.90
7654;DHT22;3869;48.406;10.774;2023-04-06T04:19:21;-2.00;99.90
7654;DHT22;3869;48.406;10.774;2023-04-06T04:21:49;-2.00;99.90
7654;DHT22;3869;48.406;10.774;2023-04-06T04:24:17;-2.10;99.90
7654;DHT22;3869;48.406;10.774;2023-04-06T04:26:45;-2.10;99.90
7654;DHT22;3869;48.406;10.774;2023-04-06T04:29:13;-2.10;99.90
7654;DHT22;3869;48.406;10.774;2023-04-06T04:31:42;-2.10;99.90
7654;DHT22;3869;48.406;10.774;2023-04-06T04:34:11;-2.10;99.90
7654;DHT22;3869;48.406;10.774;2023-04-06T04:36:39;-2.00;99.90
7654;DHT22;3869;48.406;10.774;2023-04-06T04:39:08;-2.00;99.90
7654;DHT22;3869;48.406;10.774;2023-04-06T04:41:36;-2.00;99.90
7654;DHT22;3869;48.406;10.774;2023-04-06T04:44:04;-2.10;99.90
7654;DHT22;3869;48.406;10.774;2023-04-06T04:46:32;-2.10;99.90
7654;DHT22;3869;48.406;10.774;2023-04-06T04:49:00;-2.20;99.90
7654;DHT22;3869;48.406;10.774;2023-04-06T04:51:29;-2.20;99.90
7654;DHT22;3869;48.406;10.774;2023-04-06T04:53:59;-2.20;99.90
7654;DHT22;3869;48.406;10.774;2023-04-06T04:56:27;-2.10;99.90
7654;DHT22;3869;48.406;10.774;2023-04-06T04:58:56;-2.10;99.90
7654;DHT22;3869;48.406;10.774;2023-04-06T05:01:24;-2.10;99.90
7654;DHT22;3869;48.406;10.774;2023-04-06T05:03:52;-2.10;99.90
7654;DHT22;3869;48.406;10.774;2023-04-06T05:06:20;-2.20;99.90
7654;DHT22;3869;48.406;10.774;2023-04-06T05:08:49;-2.10;99.90
7654;DHT22;3869;48.406;10.774;2023-04-06T05:11:17;-2.10;99.90
7654;DHT22;3869;48.406;10.774;2023-04-06T05:13:45;-2.10;99.90
7654;DHT22;3869;48.406;10.774;2023-04-06T05:16:13;-2.10;99.90
7654;DHT22;3869;48.406;10.774;2023-04-06T05:18:41;-2.10;99.90
7654;DHT22;3869;48.406;10.774;2023-04-06T05:21:10;-2.00;99.90
7654;DHT22;3869;48.406;10.774;2023-04-06T05:23:39;-2.00;99.90
7654;DHT22;3869;48.406;10.774;2023-04-06T05:26:09;-1.90;99.90
7654;DHT22;3869;48.406;10.774;2023-04-06T05:28:36;-1.80;99.90
7654;DHT22;3869;48.406;10.774;2023-04-06T05:31:04;-1.80;99.90
7654;DHT22;3869;48.406;10.774;2023-04-06T05:33:32;-1.90;99.90
7654;DHT22;3869;48.406;10.774;2023-04-06T05:36:00;-1.90;99.90
7654;DHT22;3869;48.406;10.774;2023-04-06T05:38:30;-1.80;99.90
7654;DHT22;3869;48.406;10.774;2023-04-06T05:41:00;-1.80;99.90
7654;DHT22;3869;48.406;10.774;2023-04-06T05:43:29;-1.80;99.90
7654;DHT22;3869;48.406;10.774;2023-04-06T05:45:57;-1.70;99.90
7654;DHT22;3869;48.406;10.774;2023-04-06T05:48:25;-1.50;99.90
7654;DHT22;3869;48.406;10.774;2023-04-06T05:50:53;-1.40;99.90
7654;DHT22;3869;48.406;10.774;2023-04-06T05:53:21;-1.30;99.90
7654;DHT22;3869;48.406;10.774;2023-04-06T05:55:49;-1.20;99.90
7654;DHT22;3869;48.406;10.774;2023-04-06T05:58:17;-1.10;99.90
7654;DHT22;3869;48.406;10.774;2023-04-06T06:00:46;-1.00;99.90
7654;DHT22;3869;48.406;10.774;2023-04-06T06:03:14;-0.90;99.90
7654;DHT22;3869;48.406;10.774;2023-04-06T06:05:42;-0.80;99.90
7654;DHT22;3869;48.406;10.774;2023-04-06T06:08:10;-0.70;99.90
7654;DHT22;3869;48.406;10.774;2023-04-06T06:10:38;-0.60;99.90
7654;DHT22;3869;48.406;10.774;2023-04-06T06:13:07;-0.50;99.90
7654;DHT22;3869;48.406;10.774;2023-04-06T06:15:35;-0.40;99.90
7654;DHT22;3869;48.406;10.774;2023-04-06T06:18:04;-0.30;99.90
7654;DHT22;3869;48.406;10.774;2023-04-06T06:20:32;-0.20;99.90
7654;DHT22;3869;48.406;10.774;2023-04-06T06:23:00;-0.10;99.90
7654;DHT22;3869;48.406;10.774;2023-04-06T06:25:29;-0.10;99.90
7654;DHT22;3869;48.406;10.774;2023-04-06T06:27:58;0.00;99.90
7654;DHT22;3869;48.406;10.774;2023-04-06T06:30:26;0.20;99.90
7654;DHT22;3869;48.406;10.774;2023-04-06T06:32:54;0.30;99.90
7654;DHT22;3869;48.406;10.774;2023-04-06T06:35:24;0.40;99.90
7654;DHT22;3869;48.406;10.774;2023-04-06T06:37:52;0.60;99.90
7654;DHT22;3869;48.406;10.774;2023-04-06T06:40:20;0.70;99.90
7654;DHT22;3869;48.406;10.774;2023-04-06T06:42:50;0.80;99.90
7654;DHT22;3869;48.406;10.774;2023-04-06T06:45:19;0.90;99.90
7654;DHT22;3869;48.406;10.774;2023-04-06T06:47:47;1.00;99.90
7654;DHT22;3869;48.406;10.774;2023-04-06T06:50:15;1.20;99.90
7654;DHT22;3869;48.406;10.774;2023-04-06T06:52:44;1.30;99.90
7654;DHT22;3869;48.406;10.774;2023-04-06T06:55:12;1.40;99.90
7654;DHT22;3869;48.406;10.774;2023-04-06T06:57:40;1.50;99.90
7654;DHT22;3869;48.406;10.774;2023-04-06T07:00:10;1.60;99.90
7654;DHT22;3869;48.406;10.774;2023-04-06T07:02:39;1.70;99.90
7654;DHT22;3869;48.406;10.774;2023-04-06T07:05:08;1.80;99.90
7654;DHT22;3869;48.406;10.774;2023-04-06T07:07:55;1.90;99.90
7654;DHT22;3869;48.406;10.774;2023-04-06T07:10:23;2.00;99.90
7654;DHT22;3869;48.406;10.774;2023-04-06T07:12:51;2.10;99.90
7654;DHT22;3869;48.406;10.774;2023-04-06T07:15:19;2.20;99.90
7654;DHT22;3869;48.406;10.774;2023-04-06T07:17:47;2.30;99.90
7654;DHT22;3869;48.406;10.774;2023-04-06T07:20:15;2.40;99.90
7654;DHT22;3869;48.406;10.774;2023-04-06T07:22:43;2.50;99.90
7654;DHT22;3869;48.406;10.774;2023-04-06T07:25:13;2.60;99.90
7654;DHT22;3869;48.406;10.774;2023-04-06T07:27:41;2.70;99.90
7654;DHT22;3869;48.406;10.774;2023-04-06T07:30:10;2.90;99.90
7654;DHT22;3869;48.406;10.774;2023-04-06T07:32:38;3.00;99.90
7654;DHT22;3869;48.406;10.774;2023-04-06T07:35:06;3.10;99.90
7654;DHT22;3869;48.406;10.774;2023-04-06T07:37:34;3.20;99.90
7654;DHT22;3869;48.406;10.774;2023-04-06T07:40:03;3.30;99.90
7654;DHT22;3869;48.406;10.774;2023-04-06T07:42:32;3.50;99.90
7654;DHT22;3869;48.406;10.774;2023-04-06T07:45:00;3.60;99.90
7654;DHT22;3869;48.406;10.774;2023-04-06T07:47:29;3.80;99.90
7654;DHT22;3869;48.406;10.774;2023-04-06T07:49:57;3.90;99.90
7654;DHT22;3869;48.406;10.774;2023-04-06T07:52:25;4.00;99.90
7654;DHT22;3869;48.406;10.774;2023-04-06T07:54:52;4.20;99.90
7654;DHT22;3869;48.406;10.774;2023-04-06T07:57:20;4.40;99.90
7654;DHT22;3869;48.406;10.774;2023-04-06T07:59:50;4.50;99.90
7654;DHT22;3869;48.406;10.774;2023-04-06T08:02:18;4.60;99.90
7654;DHT22;3869;48.406;10.774;2023-04-06T08:04:46;4.70;99.90
7654;DHT22;3869;48.406;10.774;2023-04-06T08:07:14;4.70;99.90
7654;DHT22;3869;48.406;10.774;2023-04-06T08:09:42;4.80;99.90
7654;DHT22;3869;48.406;10.774;2023-04-06T08:12:10;4.90;99.90
7654;DHT22;3869;48.406;10.774;2023-04-06T08:14:37;5.00;99.90
7654;DHT22;3869;48.406;10.774;2023-04-06T08:17:07;5.10;99.90
7654;DHT22;3869;48.406;10.774;2023-04-06T08:19:35;5.20;99.80
7654;DHT22;3869;48.406;10.774;2023-04-06T08:22:04;5.30;99.50
7654;DHT22;3869;48.406;10.774;2023-04-06T08:24:32;5.30;98.90
7654;DHT22;3869;48.406;10.774;2023-04-06T08:27:00;5.30;98.20
7654;DHT22;3869;48.406;10.774;2023-04-06T08:29:28;5.40;98.20
7654;DHT22;3869;48.406;10.774;2023-04-06T08:31:56;5.40;97.90
7654;DHT22;3869;48.406;10.774;2023-04-06T08:34:25;5.50;97.60
7654;DHT22;3869;48.406;10.774;2023-04-06T08:36:54;5.60;97.20
7654;DHT22;3869;48.406;10.774;2023-04-06T08:39:22;5.60;96.90
7654;DHT22;3869;48.406;10.774;2023-04-06T08:41:52;5.70;96.90
7654;DHT22;3869;48.406;10.774;2023-04-06T08:44:24;5.80;96.70
7654;DHT22;3869;48.406;10.774;2023-04-06T08:46:52;5.90;96.40
7654;DHT22;3869;48.406;10.774;2023-04-06T08:49:21;5.90;96.20
7654;DHT22;3869;48.406;10.774;2023-04-06T08:51:50;6.00;96.20
7654;DHT22;3869;48.406;10.774;2023-04-06T08:54:18;6.10;96.00
7654;DHT22;3869;48.406;10.774;2023-04-06T08:56:47;6.20;95.90
7654;DHT22;3869;48.406;10.774;2023-04-06T08:59:16;6.20;95.70
7654;DHT22;3869;48.406;10.774;2023-04-06T09:01:45;6.30;95.60
7654;DHT22;3869;48.406;10.774;2023-04-06T09:04:13;6.40;95.30
7654;DHT22;3869;48.406;10.774;2023-04-06T09:06:43;6.50;95.20
7654;DHT22;3869;48.406;10.774;2023-04-06T09:09:12;6.50;94.40
7654;DHT22;3869;48.406;10.774;2023-04-06T09:11:44;6.50;94.30
7654;DHT22;3869;48.406;10.774;2023-04-06T09:14:13;6.50;93.70
7654;DHT22;3869;48.406;10.774;2023-04-06T09:16:43;6.60;93.60
7654;DHT22;3869;48.406;10.774;2023-04-06T09:19:12;6.70;94.10
7654;DHT22;3869;48.406;10.774;2023-04-06T09:21:40;6.70;93.90
7654;DHT22;3869;48.406;10.774;2023-04-06T09:24:08;6.80;93.10
7654;DHT22;3869;48.406;10.774;2023-04-06T09:26:47;7.00;93.40
7654;DHT22;3869;48.406;10.774;2023-04-06T09:29:22;7.10;93.50
7654;DHT22;3869;48.406;10.774;2023-04-06T09:31:52;7.10;93.40
7654;DHT22;3869;48.406;10.774;2023-04-06T09:34:29;7.10;93.30
7654;DHT22;3869;48.406;10.774;2023-04-06T09:36:57;7.20;92.90
7654;DHT22;3869;48.406;10.774;2023-04-06T09:39:25;7.30;93.40
7654;DHT22;3869;48.406;10.774;2023-04-06T09:41:54;7.30;93.50
7654;DHT22;3869;48.406;10.774;2023-04-06T09:44:23;7.40;93.50
7654;DHT22;3869;48.406;10.774;2023-04-06T09:46:53;7.40;93.00
7654;DHT22;3869;48.406;10.774;2023-04-06T09:49:27;7.50;92.60
7654;DHT22;3869;48.406;10.774;2023-04-06T09:52:00;7.60;93.10
7654;DHT22;3869;48.406;10.774;2023-04-06T09:54:30;7.70;93.10
7654;DHT22;3869;48.406;10.774;2023-04-06T09:57:08;7.80;93.30
7654;DHT22;3869;48.406;10.774;2023-04-06T09:59:50;7.90;92.30
7654;DHT22;3869;48.406;10.774;2023-04-06T10:02:27;8.00;92.20
7654;DHT22;3869;48.406;10.774;2023-04-06T10:05:05;8.00;91.40
7654;DHT22;3869;48.406;10.774;2023-04-06T10:07:33;8.00;91.40
7654;DHT22;3869;48.406;10.774;2023-04-06T10:10:15;8.00;90.10
7654;DHT22;3869;48.406;10.774;2023-04-06T10:12:45;8.00;90.70
7654;DHT22;3869;48.406;10.774;2023-04-06T10:15:15;8.10;91.10
7654;DHT22;3869;48.406;10.774;2023-04-06T10:17:45;8.30;91.40
7654;DHT22;3869;48.406;10.774;2023-04-06T10:20:18;8.40;91.50
7654;DHT22;3869;48.406;10.774;2023-04-06T10:22:53;8.60;91.30
7654;DHT22;3869;48.406;10.774;2023-04-06T10:25:27;8.70;91.40
7654;DHT22;3869;48.406;10.774;2023-04-06T10:28:01;8.90;91.40
7654;DHT22;3869;48.406;10.774;2023-04-06T10:30:29;9.20;92.00
7654;DHT22;3869;48.406;10.774;2023-04-06T10:32:58;9.30;91.30
7654;DHT22;3869;48.406;10.774;2023-04-06T10:35:36;9.40;90.30
7654;DHT22;3869;48.406;10.774;2023-04-06T10:38:05;9.50;90.00
7654;DHT22;3869;48.406;10.774;2023-04-06T10:40:36;9.50;88.70
7654;DHT22;3869;48.406;10.774;2023-04-06T10:43:10;9.60;88.80
7654;DHT22;3869;48.406;10.774;2023-04-06T10:45:39;9.60;86.30
7654;DHT22;3869;48.406;10.774;2023-04-06T10:48:13;9.60;87.70
7654;DHT22;3869;48.406;10.774;2023-04-06T10:50:43;9.70;86.40
7654;DHT22;3869;48.406;10.774;2023-04-06T10:53:20;9.60;85.90
7654;DHT22;3869;48.406;10.774;2023-04-06T10:55:49;9.70;86.70
7654;DHT22;3869;48.406;10.774;2023-04-06T10:58:19;9.70;86.60
7654;DHT22;3869;48.406;10.774;2023-04-06T11:00:48;9.70;87.10
7654;DHT22;3869;48.406;10.774;2023-04-06T11:03:17;9.80;87.40
7654;DHT22;3869;48.406;10.774;2023-04-06T11:05:46;9.80;85.70
7654;DHT22;3869;48.406;10.774;2023-04-06T11:08:25;9.90;86.80
7654;DHT22;3869;48.406;10.774;2023-04-06T11:11:04;10.10;86.70
7654;DHT22;3869;48.406;10.774;2023-04-06T11:13:39;10.30;87.60
7654;DHT22;3869;48.406;10.774;2023-04-06T11:16:11;10.50;85.20
7654;DHT22;3869;48.406;10.774;2023-04-06T11:18:49;10.60;86.90
7654;DHT22;3869;48.406;10.774;2023-04-06T11:21:18;10.60;84.30
7654;DHT22;3869;48.406;10.774;2023-04-06T11:23:46;10.70;84.50
7654;DHT22;3869;48.406;10.774;2023-04-06T11:26:14;10.80;83.50
7654;DHT22;3869;48.406;10.774;2023-04-06T11:28:44;10.80;83.40
7654;DHT22;3869;48.406;10.774;2023-04-06T11:31:12;10.90;83.80
7654;DHT22;3869;48.406;10.774;2023-04-06T11:33:40;10.90;83.50
7654;DHT22;3869;48.406;10.774;2023-04-06T11:36:08;10.90;81.80
7654;DHT22;3869;48.406;10.774;2023-04-06T11:38:39;10.90;82.40
7654;DHT22;3869;48.406;10.774;2023-04-06T11:41:07;10.90;81.20
7654;DHT22;3869;48.406;10.774;2023-04-06T11:43:35;11.00;80.20
7654;DHT22;3869;48.406;10.774;2023-04-06T11:46:04;11.10;82.70
7654;DHT22;3869;48.406;10.774;2023-04-06T11:48:43;11.30;82.00
7654;DHT22;3869;48.406;10.774;2023-04-06T11:51:12;11.30;81.20
7654;DHT22;3869;48.406;10.774;2023-04-06T11:53:44;11.30;81.70
7654;DHT22;3869;48.406;10.774;2023-04-06T11:56:23;11.30;79.90
7654;DHT22;3869;48.406;10.774;2023-04-06T11:58:52;11.20;82.10
7654;DHT22;3869;48.406;10.774;2023-04-06T12:01:21;11.20;81.90
7654;DHT22;3869;48.406;10.774;2023-04-06T12:03:49;11.20;80.50
7654;DHT22;3869;48.406;10.774;2023-04-06T12:06:18;11.10;79.60
7654;DHT22;3869;48.406;10.774;2023-04-06T12:08:46;11.00;79.30
7654;DHT22;3869;48.406;10.774;2023-04-06T12:11:14;11.10;81.30
7654;DHT22;3869;48.406;10.774;2023-04-06T12:13:42;11.10;80.00
7654;DHT22;3869;48.406;10.774;2023-04-06T12:16:10;11.20;82.00
7654;DHT22;3869;48.406;10.774;2023-04-06T12:18:39;11.30;82.90
7654;DHT22;3869;48.406;10.774;2023-04-06T12:21:07;11.40;83.90
7654;DHT22;3869;48.406;10.774;2023-04-06T12:23:35;11.60;82.50
7654;DHT22;3869;48.406;10.774;2023-04-06T12:26:03;11.60;81.80
7654;DHT22;3869;48.406;10.774;2023-04-06T12:28:38;11.70;81.00
7654;DHT22;3869;48.406;10.774;2023-04-06T12:31:07;11.80;80.10
7654;DHT22;3869;48.406;10.774;2023-04-06T12:33:35;11.80;80.60
7654;DHT22;3869;48.406;10.774;2023-04-06T12:36:05;11.90;82.00
7654;DHT22;3869;48.406;10.774;2023-04-06T12:38:38;11.90;82.00
7654;DHT22;3869;48.406;10.774;2023-04-06T12:41:07;12.00;82.20
7654;DHT22;3869;48.406;10.774;2023-04-06T12:43:36;12.00;82.20
7654;DHT22;3869;48.406;10.774;2023-04-06T12:46:04;11.90;80.90
7654;DHT22;3869;48.406;10.774;2023-04-06T12:48:32;11.90;81.40
7654;DHT22;3869;48.406;10.774;2023-04-06T12:51:01;12.00;81.60
7654;DHT22;3869;48.406;10.774;2023-04-06T12:53:31;12.10;81.10
7654;DHT22;3869;48.406;10.774;2023-04-06T12:55:59;12.10;75.80
7654;DHT22;3869;48.406;10.774;2023-04-06T12:58:27;11.70;75.20
7654;DHT22;3869;48.406;10.774;2023-04-06T13:00:57;11.60;76.50
7654;DHT22;3869;48.406;10.774;2023-04-06T13:03:30;11.40;77.90
7654;DHT22;3869;48.406;10.774;2023-04-06T13:05:59;11.50;80.90
7654;DHT22;3869;48.406;10.774;2023-04-06T13:08:27;11.60;78.50
7654;DHT22;3869;48.406;10.774;2023-04-06T13:10:56;11.70;79.40
7654;DHT22;3869;48.406;10.774;2023-04-06T13:13:26;11.80;78.60
7654;DHT22;3869;48.406;10.774;2023-04-06T13:15:59;12.00;81.40
7654;DHT22;3869;48.406;10.774;2023-04-06T13:18:28;12.20;80.00
7654;DHT22;3869;48.406;10.774;2023-04-06T13:20:56;12.20;79.10
7654;DHT22;3869;48.406;10.774;2023-04-06T13:23:24;12.10;79.30
7654;DHT22;3869;48.406;10.774;2023-04-06T13:25:58;12.20;79.70
7654;DHT22;3869;48.406;10.774;2023-04-06T13:28:27;12.20;77.80
7654;DHT22;3869;48.406;10.774;2023-04-06T13:30:57;12.40;78.40
7654;DHT22;3869;48.406;10.774;2023-04-06T13:33:26;12.30;75.20
7654;DHT22;3869;48.406;10.774;2023-04-06T13:35:54;12.40;74.60
7654;DHT22;3869;48.406;10.774;2023-04-06T13:38:22;12.50;76.50
7654;DHT22;3869;48.406;10.774;2023-04-06T13:40:51;12.60;77.30
7654;DHT22;3869;48.406;10.774;2023-04-06T13:43:20;12.60;77.10
7654;DHT22;3869;48.406;10.774;2023-04-06T13:45:49;12.70;76.70
7654;DHT22;3869;48.406;10.774;2023-04-06T13:48:18;12.60;75.20
7654;DHT22;3869;48.406;10.774;2023-04-06T13:50:46;12.70;75.50
7654;DHT22;3869;48.406;10.774;2023-04-06T13:53:14;12.70;77.90
7654;DHT22;3869;48.406;10.774;2023-04-06T13:55:42;12.60;73.10
7654;DHT22;3869;48.406;10.774;2023-04-06T13:58:10;12.40;73.00
7654;DHT22;3869;48.406;10.774;2023-04-06T14:00:39;12.40;74.00
7654;DHT22;3869;48.406;10.774;2023-04-06T14:03:07;12.20;72.50
7654;DHT22;3869;48.406;10.774;2023-04-06T14:05:35;12.20;73.70
7654;DHT22;3869;48.406;10.774;2023-04-06T14:08:03;12.20;74.10
7654;DHT22;3869;48.406;10.774;2023-04-06T14:10:31;12.20;74.00
7654;DHT22;3869;48.406;10.774;2023-04-06T14:12:59;12.20;73.20
7654;DHT22;3869;48.406;10.774;2023-04-06T14:15:27;12.20;75.10
7654;DHT22;3869;48.406;10.774;2023-04-06T14:17:56;12.20;74.50
7654;DHT22;3869;48.406;10.774;2023-04-06T14:20:24;12.20;73.90
7654;DHT22;3869;48.406;10.774;2023-04-06T14:22:52;12.30;74.40
7654;DHT22;3869;48.406;10.774;2023-04-06T14:25:22;12.30;75.70
7654;DHT22;3869;48.406;10.774;2023-04-06T14:27:50;12.30;75.80
7654;DHT22;3869;48.406;10.774;2023-04-06T14:30:18;12.30;75.40
7654;DHT22;3869;48.406;10.774;2023-04-06T14:32:46;12.30;73.70
7654;DHT22;3869;48.406;10.774;2023-04-06T14:35:16;12.20;74.50
7654;DHT22;3869;48.406;10.774;2023-04-06T14:37:44;12.20;76.90
7654;DHT22;3869;48.406;10.774;2023-04-06T14:40:12;12.10;75.10
7654;DHT22;3869;48.406;10.774;2023-04-06T14:42:40;12.00;76.50
7654;DHT22;3869;48.406;10.774;2023-04-06T14:45:08;12.00;75.20
7654;DHT22;3869;48.406;10.774;2023-04-06T14:47:36;12.00;75.30
7654;DHT22;3869;48.406;10.774;2023-04-06T14:50:05;11.90;72.80
7654;DHT22;3869;48.406;10.774;2023-04-06T14:52:35;11.80;71.80
7654;DHT22;3869;48.406;10.774;2023-04-06T14:55:04;11.80;72.80
7654;DHT22;3869;48.406;10.774;2023-04-06T14:57:32;11.80;73.90
7654;DHT22;3869;48.406;10.774;2023-04-06T15:00:00;11.90;76.00
7654;DHT22;3869;48.406;10.774;2023-04-06T15:02:30;11.90;75.70
7654;DHT22;3869;48.406;10.774;2023-04-06T15:04:58;11.90;75.70
7654;DHT22;3869;48.406;10.774;2023-04-06T15:07:27;11.90;75.60
7654;DHT22;3869;48.406;10.774;2023-04-06T15:09:56;11.90;74.40
7654;DHT22;3869;48.406;10.774;2023-04-06T15:12:24;11.80;75.90
7654;DHT22;3869;48.406;10.774;2023-04-06T15:14:52;11.80;74.20
7654;DHT22;3869;48.406;10.774;2023-04-06T15:17:20;11.70;73.40
7654;DHT22;3869;48.406;10.774;2023-04-06T15:19:48;11.70;74.50
7654;DHT22;3869;48.406;10.774;2023-04-06T15:22:16;11.60;74.30
7654;DHT22;3869;48.406;10.774;2023-04-06T15:24:44;11.60;71.80
7654;DHT22;3869;48.406;10.774;2023-04-06T15:27:13;11.50;72.40
7654;DHT22;3869;48.406;10.774;2023-04-06T15:29:41;11.50;73.50
7654;DHT22;3869;48.406;10.774;2023-04-06T15:32:09;11.50;73.30
7654;DHT22;3869;48.406;10.774;2023-04-06T15:34:38;11.40;72.50
7654;DHT22;3869;48.406;10.774;2023-04-06T15:37:06;11.40;72.20
7654;DHT22;3869;48.406;10.774;2023-04-06T15:39:34;11.40;73.50
7654;DHT22;3869;48.406;10.774;2023-04-06T15:42:03;11.40;73.10
7654;DHT22;3869;48.406;10.774;2023-04-06T15:44:32;11.40;73.20
7654;DHT22;3869;48.406;10.774;2023-04-06T15:47:01;11.30;72.90
7654;DHT22;3869;48.406;10.774;2023-04-06T15:49:29;11.30;71.50
7654;DHT22;3869;48.406;10.774;2023-04-06T15:51:57;11.20;70.70
7654;DHT22;3869;48.406;10.774;2023-04-06T15:54:25;11.10;71.70
7654;DHT22;3869;48.406;10.774;2023-04-06T15:56:52;11.10;73.30
7654;DHT22;3869;48.406;10.774;2023-04-06T15:59:22;11.10;74.70
7654;DHT22;3869;48.406;10.774;2023-04-06T16:01:51;11.10;74.30